createdAt,value
2019-01-02T00:01:33.537Z,3.47
2019-01-02T00:04:23.507Z,3.47
2019-01-02T00:07:13.703Z,3.49
2019-01-02T00:10:22.584Z,3.49
2019-01-02T00:13:12.596Z,3.49
2019-01-02T00:16:21.262Z,3.49
2019-01-02T00:19:10.750Z,3.53
2019-01-02T00:22:01.076Z,3.46
2019-01-02T00:24:51.505Z,3.48
2019-01-02T00:27:40.950Z,3.45
2019-01-02T00:30:30.598Z,3.42
2019-01-02T00:33:22.489Z,3.47
2019-01-02T00:36:12.176Z,3.41
2019-01-02T00:39:02.121Z,3.37
2019-01-02T00:41:51.892Z,3.22
2019-01-02T00:44:42.067Z,3.18
2019-01-02T00:47:50.728Z,3.10
2019-01-02T00:50:40.171Z,2.80
2019-01-02T00:53:30.194Z,2.39
2019-01-02T00:56:20.337Z,2.25
2019-01-02T00:59:11.709Z,2.18
2019-01-02T01:02:01.665Z,2.10
2019-01-02T01:04:51.371Z,2.10
2019-01-02T01:07:43.388Z,2.14
2019-01-02T01:10:33.106Z,2.09
2019-01-02T01:13:23.308Z,2.06
2019-01-02T01:16:13.122Z,2.13
2019-01-02T01:19:02.546Z,2.10
2019-01-02T01:21:52.018Z,2.08
2019-01-02T01:24:42.290Z,2.08
2019-01-02T01:27:33.789Z,2.09
2019-01-02T01:30:24.569Z,2.04
2019-01-02T01:33:14.402Z,2.02
2019-01-02T01:36:04.260Z,1.97
2019-01-02T01:38:53.751Z,2.05
2019-01-02T01:41:43.566Z,2.02
2019-01-02T01:44:33.609Z,2.03
2019-01-02T01:47:23.738Z,2.09
2019-01-02T01:50:14.030Z,2.11
2019-01-02T01:53:03.569Z,2.11
2019-01-02T01:55:52.996Z,2.10
2019-01-02T01:58:43.103Z,2.19
2019-01-02T02:01:32.808Z,2.15
2019-01-02T02:04:23.949Z,2.16
2019-01-02T02:07:15.101Z,2.12
2019-01-02T02:10:06.565Z,2.08
2019-01-02T02:12:56.523Z,2.08
2019-01-02T02:15:46.322Z,2.03
2019-01-02T02:18:35.799Z,1.87
2019-01-02T02:21:27.215Z,1.86
2019-01-02T02:24:17.497Z,1.80
2019-01-02T02:27:06.945Z,1.78
2019-01-02T02:29:56.424Z,1.85
2019-01-02T02:32:47.751Z,1.91
2019-01-02T02:35:37.943Z,1.87
2019-01-02T02:38:29.848Z,1.79
2019-01-02T02:41:21.320Z,1.80
2019-01-02T02:44:12.485Z,1.78
2019-01-02T02:47:02.502Z,1.75
2019-01-02T02:49:52.260Z,1.73
2019-01-02T02:52:42.432Z,1.66
2019-01-02T02:55:31.883Z,1.63
2019-01-02T02:58:23.601Z,1.53
2019-01-02T03:01:13.139Z,1.48
2019-01-02T03:04:03.268Z,1.45
2019-01-02T03:06:55.594Z,1.27
2019-01-02T03:09:46.637Z,1.18
2019-01-02T03:12:36.796Z,1.18
2019-01-02T03:15:26.538Z,1.24
2019-01-02T03:18:16.987Z,1.23
2019-01-02T03:21:06.778Z,1.28
2019-01-02T03:23:56.238Z,1.32
2019-01-02T03:26:45.996Z,1.34
2019-01-02T03:29:35.715Z,1.27
2019-01-02T03:32:27.181Z,1.26
2019-01-02T03:35:37.528Z,1.29
2019-01-02T03:38:27.246Z,1.21
2019-01-02T03:41:16.951Z,1.18
2019-01-02T03:44:06.910Z,1.10
2019-01-02T03:46:56.358Z,1.14
2019-01-02T03:49:45.828Z,1.11
2019-01-02T03:52:35.295Z,1.06
2019-01-02T03:55:25.384Z,1.12
2019-01-02T03:58:14.832Z,1.10
2019-01-02T04:01:04.648Z,1.11
2019-01-02T04:03:54.175Z,1.11
2019-01-02T04:06:43.856Z,0.98
2019-01-02T04:09:33.296Z,0.98
2019-01-02T04:12:23.213Z,0.94
2019-01-02T04:15:13.452Z,0.86
2019-01-02T04:18:02.967Z,0.85
2019-01-02T04:20:52.554Z,0.85
2019-01-02T04:23:42.247Z,0.87
2019-01-02T04:26:31.907Z,0.84
2019-01-02T04:29:21.673Z,0.80
2019-01-02T04:32:11.712Z,0.80
2019-01-02T04:38:14.980Z,0.75
2019-01-02T04:41:23.863Z,0.77
2019-01-02T04:44:13.629Z,0.77
2019-01-02T04:47:22.544Z,0.76
2019-01-02T04:50:14.135Z,0.79
2019-01-02T04:53:03.837Z,0.79
2019-01-02T04:55:53.763Z,0.75
2019-01-02T04:58:44.004Z,0.71
2019-01-02T05:01:33.520Z,0.68
2019-01-02T05:04:42.427Z,0.59
2019-01-02T05:07:51.155Z,0.57
2019-01-02T05:10:59.847Z,0.55
2019-01-02T05:13:49.540Z,0.55
2019-01-02T05:16:39.339Z,0.46
2019-01-02T05:19:28.798Z,0.46
2019-01-02T05:22:18.727Z,0.44
2019-01-02T05:25:08.812Z,0.47
2019-01-02T05:27:59.065Z,0.47
2019-01-02T05:31:07.746Z,0.55
2019-01-02T05:33:57.450Z,0.55
2019-01-02T05:36:47.730Z,0.55
2019-01-02T05:39:56.626Z,0.46
2019-01-02T05:42:46.419Z,0.46
2019-01-02T05:45:55.071Z,0.39
2019-01-02T05:49:03.980Z,0.36
2019-01-02T05:51:53.654Z,0.42
2019-01-02T05:54:43.613Z,0.44
2019-01-02T05:57:33.403Z,0.44
2019-01-02T06:00:43.275Z,0.49
2019-01-02T06:03:33.000Z,0.49
2019-01-02T06:06:41.779Z,0.61
2019-01-02T06:09:31.468Z,0.61
2019-01-02T06:12:41.058Z,0.41
2019-01-02T06:15:31.465Z,0.41
2019-01-02T06:18:40.454Z,0.19
2019-01-02T06:21:30.856Z,0.19
2019-01-02T06:24:40.482Z,0.23
2019-01-02T06:27:30.567Z,0.23
2019-01-02T06:30:20.103Z,0.14
2019-01-02T06:33:21.903Z,0.10
2019-01-02T06:36:11.899Z,0.17
2019-01-02T06:39:02.036Z,0.17
2019-01-02T06:42:10.721Z,0.14
2019-01-02T06:45:01.394Z,0.14
2019-01-02T06:48:10.623Z,0.19
2019-01-02T06:51:00.069Z,0.19
2019-01-02T06:53:49.812Z,0.22
2019-01-02T06:56:39.789Z,0.26
2019-01-02T06:59:29.531Z,0.36
2019-01-02T07:02:19.241Z,0.46
2019-01-02T07:05:28.347Z,0.50
2019-01-02T07:08:18.073Z,0.50
2019-01-02T07:11:07.626Z,0.48
2019-01-02T07:13:57.581Z,0.58
2019-01-02T07:17:06.514Z,0.55
2019-01-02T07:19:55.984Z,0.55
2019-01-02T07:23:08.161Z,0.55
2019-01-02T07:25:57.904Z,0.63
2019-01-02T07:28:48.136Z,0.63
2019-01-02T07:31:37.890Z,0.68
2019-01-02T07:35:05.683Z,0.68
2019-01-02T07:38:19.752Z,0.76
2019-01-02T07:41:47.589Z,0.71
2019-01-02T07:45:15.678Z,0.80
2019-01-02T07:48:43.737Z,0.80
2019-01-02T07:52:14.313Z,0.79
2019-01-02T07:55:42.379Z,0.74
2019-01-02T07:59:10.264Z,0.79
2019-01-02T08:02:38.115Z,0.79
2019-01-02T08:06:05.931Z,0.71
2019-01-02T08:09:34.004Z,0.71
2019-01-02T08:13:01.801Z,0.60
2019-01-02T08:16:29.818Z,0.54
2019-01-02T08:19:56.025Z,0.58
2019-01-02T08:23:13.134Z,0.70
2019-01-02T08:26:40.922Z,0.70
2019-01-02T08:30:11.473Z,0.72
2019-01-02T08:33:24.515Z,0.67
2019-01-02T08:36:52.635Z,0.68
2019-01-02T08:40:20.437Z,0.74
2019-01-02T08:43:35.170Z,0.75
2019-01-02T08:47:01.934Z,0.75
2019-01-02T08:50:29.769Z,0.71
2019-01-02T08:53:58.100Z,0.68
2019-01-02T08:57:13.788Z,0.57
2019-01-02T09:00:28.579Z,0.55
2019-01-02T09:03:56.421Z,0.63
2019-01-02T09:07:24.211Z,0.85
2019-01-02T09:10:52.170Z,0.85
2019-01-02T09:14:09.547Z,0.93
2019-01-02T09:17:37.374Z,0.90
2019-01-02T09:21:07.507Z,1.15
2019-01-02T09:24:35.323Z,1.27
2019-01-02T09:28:03.285Z,0.91
2019-01-02T09:31:31.088Z,0.99
2019-01-02T09:35:13.693Z,1.15
2019-01-02T09:42:03.027Z,1.32
2019-01-02T09:45:31.106Z,1.23
2019-01-02T09:48:38.206Z,1.26
2019-01-02T09:52:06.080Z,1.59
2019-01-02T09:55:33.882Z,1.67
2019-01-02T09:59:01.716Z,1.67
2019-01-02T10:02:29.534Z,1.74
2019-01-02T10:06:00.362Z,1.78
2019-01-02T10:09:28.161Z,1.65
2019-01-02T10:12:50.983Z,1.54
2019-01-02T10:16:19.011Z,1.48
2019-01-02T10:19:46.827Z,1.55
2019-01-02T10:23:01.243Z,1.64
2019-01-02T10:26:29.320Z,1.70
2019-01-02T10:29:57.141Z,1.59
2019-01-02T10:32:59.229Z,1.57
2019-01-02T10:36:27.098Z,1.57
2019-01-02T10:39:54.902Z,1.63
2019-01-02T10:47:11.786Z,2.54
2019-01-02T10:50:39.904Z,2.31
2019-01-02T10:54:07.980Z,2.43
2019-01-02T10:57:24.285Z,2.06
2019-01-02T11:00:52.175Z,1.96
2019-01-02T11:04:20.227Z,2.07
2019-01-02T11:07:33.359Z,2.13
2019-01-02T11:11:01.173Z,2.22
2019-01-02T11:14:24.791Z,2.32
2019-01-02T11:17:39.043Z,2.14
2019-01-02T11:21:06.866Z,2.09
2019-01-02T11:24:35.017Z,1.99
2019-01-02T11:28:00.772Z,2.03
2019-01-02T11:31:21.071Z,2.07
2019-01-02T11:34:34.961Z,2.20
2019-01-02T11:38:00.135Z,1.87
2019-01-02T11:41:27.945Z,2.01
2019-01-02T11:44:45.482Z,2.29
2019-01-02T11:47:35.519Z,2.38
2019-01-02T11:50:25.568Z,2.09
2019-01-02T11:53:15.349Z,1.99
2019-01-02T11:56:06.207Z,1.87
2019-01-02T11:58:57.019Z,1.93
2019-01-02T12:01:47.077Z,1.98
2019-01-02T12:04:36.597Z,2.15
2019-01-02T12:07:26.770Z,2.14
2019-01-02T12:13:13.585Z,2.30
2019-01-02T12:16:03.374Z,2.34
2019-01-02T12:19:13.854Z,2.13
2019-01-02T12:22:03.651Z,1.95
2019-01-02T12:24:53.578Z,1.67
2019-01-02T12:27:43.664Z,1.72
2019-01-02T12:30:34.313Z,1.74
2019-01-02T12:33:24.364Z,1.85
2019-01-02T12:36:33.050Z,1.84
2019-01-02T12:39:23.019Z,1.84
2019-01-02T12:42:12.775Z,1.94
2019-01-02T12:45:21.762Z,2.06
2019-01-02T12:48:11.740Z,2.09
2019-01-02T12:51:01.473Z,2.12
2019-01-02T12:53:51.718Z,2.24
2019-01-02T12:56:41.418Z,2.22
2019-01-02T12:59:31.647Z,2.17
2019-01-02T13:02:59.717Z,2.17
2019-01-02T13:06:28.464Z,2.08
2019-01-02T13:09:49.148Z,2.03
2019-01-02T13:13:16.972Z,1.89
2019-01-02T13:16:31.316Z,1.78
2019-01-02T13:23:20.083Z,1.22
2019-01-02T13:26:47.871Z,0.54
2019-01-02T13:30:08.658Z,0.54
2019-01-02T13:33:36.454Z,0.25
2019-01-02T13:37:04.274Z,0.25
2019-01-02T13:40:16.552Z,0.12
2019-01-02T13:43:45.083Z,0.22
2019-01-02T13:47:12.938Z,0.34
2019-01-02T13:50:25.699Z,0.34
2019-01-02T13:53:15.499Z,0.52
2019-01-02T13:56:24.708Z,0.75
2019-01-02T13:59:15.028Z,0.75
2019-01-02T14:02:04.961Z,1.03
2019-01-02T14:04:54.839Z,1.08
2019-01-02T14:07:45.820Z,1.03
2019-01-02T14:10:35.908Z,0.94
2019-01-02T14:13:27.054Z,1.03
2019-01-02T14:16:16.534Z,0.99
2019-01-02T14:19:06.344Z,0.99
2019-01-02T14:22:15.026Z,0.86
2019-01-02T14:25:04.941Z,0.84
2019-01-02T14:28:13.619Z,0.87
2019-01-02T14:31:22.374Z,0.88
2019-01-02T14:34:31.780Z,0.89
2019-01-02T14:37:21.568Z,0.89
2019-01-02T14:40:11.096Z,0.76
2019-01-02T14:43:01.464Z,0.65
2019-01-02T14:46:10.423Z,0.59
2019-01-02T14:48:59.912Z,0.59
2019-01-02T14:51:50.374Z,0.54
2019-01-02T14:54:40.390Z,0.67
2019-01-02T14:57:30.153Z,0.54
2019-01-02T15:00:38.835Z,0.54
2019-01-02T15:03:28.327Z,0.54
2019-01-02T15:06:18.410Z,0.47
2019-01-02T15:09:09.546Z,0.20
2019-01-02T15:12:18.328Z,-0.22
2019-01-02T15:15:08.987Z,-0.22
2019-01-02T15:17:58.817Z,-0.74
2019-01-02T15:21:07.793Z,-1.24
2019-01-02T15:23:58.396Z,-1.24
2019-01-02T15:27:07.078Z,-0.66
2019-01-02T15:30:09.057Z,-0.27
2019-01-02T15:33:13.211Z,-0.10
2019-01-02T15:36:02.955Z,-0.10
2019-01-02T15:39:11.896Z,-0.13
2019-01-02T15:42:20.818Z,-0.22
2019-01-02T15:45:29.498Z,-0.10
2019-01-02T15:48:19.344Z,-0.08
2019-01-02T15:51:09.184Z,-0.08
2019-01-02T15:54:19.127Z,-0.05
2019-01-02T15:57:09.342Z,0.18
2019-01-02T15:59:59.071Z,0.21
2019-01-02T16:02:49.071Z,0.21
2019-01-02T16:05:39.053Z,-0.18
2019-01-02T16:08:28.762Z,-1.03
2019-01-02T16:11:38.005Z,-1.57
2019-01-02T16:14:46.732Z,-1.59
2019-01-02T16:17:36.192Z,-1.59
2019-01-02T16:20:45.112Z,-1.52
2019-01-02T16:23:35.210Z,-1.52
2019-01-02T16:26:24.920Z,-1.44
2019-01-02T16:29:14.780Z,-1.36
2019-01-02T16:32:04.747Z,-1.36
2019-01-02T16:34:54.726Z,-1.31
2019-01-02T16:37:44.291Z,-1.21
2019-01-02T16:40:34.076Z,-1.21
2019-01-02T16:43:43.506Z,-1.18
2019-01-02T16:46:33.438Z,-1.17
2019-01-02T16:49:23.210Z,-0.98
2019-01-02T16:52:13.366Z,-1.05
2019-01-02T16:55:03.485Z,-1.00
2019-01-02T16:58:12.307Z,-0.91
2019-01-02T17:01:24.802Z,-0.91
2019-01-02T17:04:14.593Z,-0.96
2019-01-02T17:07:04.711Z,-0.85
2019-01-02T17:09:54.374Z,-0.70
2019-01-02T17:12:44.217Z,-0.70
2019-01-02T17:15:34.690Z,-0.71
2019-01-02T17:18:24.928Z,-0.68
2019-01-02T17:21:34.560Z,-0.59
2019-01-02T17:24:24.417Z,-0.59
2019-01-02T17:27:33.088Z,-0.67
2019-01-02T17:30:34.732Z,-0.69
2019-01-02T17:33:24.304Z,-0.84
2019-01-02T17:36:32.964Z,-0.82
2019-01-02T17:39:22.841Z,-0.82
2019-01-02T17:42:12.999Z,-0.91
2019-01-02T17:45:04.169Z,-0.95
2019-01-02T17:48:13.573Z,-1.02
2019-01-02T17:51:07.381Z,-1.02
2019-01-02T17:53:57.107Z,-1.08
2019-01-02T17:56:47.458Z,-1.08
2019-01-02T17:59:37.380Z,-1.11
2019-01-02T18:02:27.299Z,-1.03
2019-01-02T18:05:16.867Z,-1.04
2019-01-02T18:08:06.672Z,-1.04
2019-01-02T18:10:56.166Z,-1.00
2019-01-02T18:13:45.998Z,-0.88
2019-01-02T18:16:36.742Z,-0.88
2019-01-02T18:19:26.222Z,-0.88
2019-01-02T18:22:16.070Z,-0.88
2019-01-02T18:25:05.734Z,-0.88
2019-01-02T18:27:55.798Z,-0.89
2019-01-02T18:30:45.776Z,-0.92
2019-01-02T18:33:35.327Z,-1.00
2019-01-02T18:36:24.814Z,-1.00
2019-01-02T18:39:33.766Z,-1.00
2019-01-02T18:42:23.598Z,-0.94
2019-01-02T18:45:13.175Z,-0.94
2019-01-02T18:48:02.671Z,-1.13
2019-01-02T18:50:52.799Z,-1.19
2019-01-02T18:54:01.711Z,-1.19
2019-01-02T18:56:51.586Z,-1.13
2019-01-02T18:59:41.415Z,-1.13
2019-01-02T19:02:31.239Z,-1.16
2019-01-02T19:05:21.002Z,-1.31
2019-01-02T19:08:10.743Z,-1.22
2019-01-02T19:11:00.461Z,-1.26
2019-01-02T19:14:10.263Z,-1.16
2019-01-02T19:17:00.359Z,-1.16
2019-01-02T19:20:09.195Z,-1.34
2019-01-02T19:26:35.625Z,-1.43
2019-01-02T19:29:38.463Z,-1.43
2019-01-02T19:32:28.019Z,-1.33
2019-01-02T19:35:38.579Z,-1.12
2019-01-02T19:38:47.533Z,-1.11
2019-01-02T19:41:58.579Z,-1.11
2019-01-02T19:44:48.370Z,-1.11
2019-01-02T19:51:21.050Z,-1.02
2019-01-02T19:54:03.179Z,-0.89
2019-01-02T20:00:46.559Z,-0.72
2019-01-02T20:03:38.067Z,-0.72
2019-01-02T20:10:34.048Z,-0.65
2019-01-02T20:13:47.872Z,-0.74
2019-01-02T20:17:38.873Z,-0.75
2019-01-02T20:20:26.882Z,-0.75
2019-01-02T20:23:37.551Z,-0.74
2019-01-02T20:26:33.689Z,-0.63
2019-01-02T20:30:01.430Z,-0.63
2019-01-02T20:32:51.063Z,-0.55
2019-01-02T20:35:41.345Z,-0.47
2019-01-02T20:38:50.148Z,-0.64
2019-01-02T20:44:55.745Z,-0.80
2019-01-02T20:48:04.806Z,-0.80
2019-01-02T20:57:01.944Z,-0.92
2019-01-02T20:59:52.054Z,-0.91
2019-01-02T21:03:00.962Z,-0.95
2019-01-02T21:05:51.951Z,-0.95
2019-01-02T21:08:42.065Z,-0.84
2019-01-02T21:11:31.785Z,-0.92
2019-01-02T21:14:21.838Z,-1.08
2019-01-02T21:17:11.638Z,-0.94
2019-01-02T21:20:01.080Z,-1.02
2019-01-02T21:22:52.891Z,-0.96
2019-01-02T21:25:42.836Z,-0.94
2019-01-02T21:28:32.690Z,-0.94
2019-01-02T21:31:22.159Z,-0.92
2019-01-02T21:34:12.965Z,-0.92
2019-01-02T21:37:03.523Z,-0.93
2019-01-02T21:40:12.344Z,-0.86
2019-01-02T21:43:04.381Z,-0.86
2019-01-02T21:45:57.361Z,-0.91
2019-01-02T21:48:48.450Z,-0.92
2019-01-02T21:51:38.787Z,-0.94
2019-01-02T21:54:28.616Z,-0.93
2019-01-02T21:57:18.066Z,-1.05
2019-01-02T22:00:11.643Z,-1.05
2019-01-02T22:03:20.659Z,-1.00
2019-01-02T22:06:10.837Z,-1.00
2019-01-02T22:09:19.521Z,-1.07
2019-01-02T22:12:10.048Z,-1.07
2019-01-02T22:15:00.299Z,-0.98
2019-01-02T22:18:09.048Z,-1.15
2019-01-02T22:21:19.522Z,-1.15
2019-01-02T22:24:09.314Z,-0.99
2019-01-02T22:26:59.257Z,-1.17
2019-01-02T22:29:48.995Z,-1.12
2019-01-02T22:32:38.631Z,-1.18
2019-01-02T22:35:28.427Z,-1.21
2019-01-02T22:38:18.296Z,-1.11
2019-01-02T22:41:08.289Z,-1.17
2019-01-02T22:43:58.967Z,-1.19
2019-01-02T22:46:48.488Z,-1.17
2019-01-02T22:49:38.620Z,-1.17
2019-01-02T22:52:47.283Z,-1.23
2019-01-02T22:55:36.977Z,-1.27
2019-01-02T22:58:26.447Z,-1.23
2019-01-02T23:01:35.880Z,-1.29
2019-01-02T23:04:56.872Z,-1.35
2019-01-02T23:08:08.584Z,-1.34
2019-01-02T23:11:17.541Z,-1.28
2019-01-02T23:14:26.773Z,-1.28
2019-01-02T23:17:35.496Z,-1.36
2019-01-02T23:20:44.772Z,-1.25
2019-01-02T23:23:53.898Z,-1.32
2019-01-02T23:27:02.605Z,-1.31
2019-01-02T23:30:11.369Z,-1.36
2019-01-02T23:33:20.294Z,-1.36
2019-01-02T23:36:48.201Z,-1.41
2019-01-02T23:39:57.255Z,-1.25
2019-01-02T23:43:06.199Z,-1.30
2019-01-02T23:46:15.879Z,-1.36
2019-01-02T23:49:24.434Z,-1.37
2019-01-02T23:52:33.141Z,-1.33
2019-01-02T23:55:42.071Z,-1.40
2019-01-02T23:58:50.521Z,-1.32
